Oakdale, Wisconsin
Current Conditions -  °F | °C
As of 2:58 PM on Thursday 27 Nov 2014 (Local Time) from KVOK Reporting Station
Clear Clear  
Wind Chill:   Ceiling: Unl
Heat Index: 14°   Visibility: 10mi
Dew Point:   Wind: 9mph
Humidity: 69%   Direction: 280°W
Pressure: 30.39"   Gusts: NA
Location:  43.96°N, 90.38°W
Report Text: KVOK 272058Z AUTO 28008KT 10SM CLR M10/M15 A3039 RMK AO2 SLP312 T11011149 55003
Loading
Personal Weather Stations






























Interactive Weather Map New forecast layout! Learn more

10-Day Weather Forecast

Advertisements
Track Severe Weather on mobile